Time;durP1;ratioP1;P1;durP2;ratioP2;P2;SDS_P1;SDS_P2;PMS_P1;PMS_P2;Temp;Humidity;BMP_temperature;BMP_pressure;BME280_temperature;BME280_humidity;BME280_pressure;Samples;Min_cycle;Max_cycle;Signal;HPM_P1;HPM_P2
2021/12/19 00:04:25;;;;;;;14.97;6.20;;;-0.10;99.90;;;;;;5031789;28;20168;-60
2021/12/19 00:09:37;;;;;;;12.83;5.83;;;-0.10;99.90;;;;;;5031417;28;20651;-60
2021/12/19 00:12:04;;;;;;;18.47;6.27;;;-0.10;99.90;;;;;;5013860;28;20215;-60
2021/12/19 00:14:30;;;;;;;11.90;6.23;;;-0.10;99.90;;;;;;5025676;28;20252;-60
2021/12/19 00:16:55;;;;;;;13.03;5.33;;;-0.10;99.90;;;;;;5022732;28;20215;-59
2021/12/19 00:19:22;;;;;;;10.80;4.63;;;0.00;99.90;;;;;;5031698;28;20182;-59
2021/12/19 00:21:48;;;;;;;9.73;4.60;;;0.00;99.90;;;;;;5030437;28;20196;-58
2021/12/19 00:24:14;;;;;;;9.87;4.13;;;0.00;99.90;;;;;;5031208;28;20200;-59
2021/12/19 00:26:40;;;;;;;9.07;4.30;;;0.00;99.90;;;;;;5031460;28;20515;-61
2021/12/19 00:29:08;;;;;;;8.03;3.73;;;0.00;99.90;;;;;;5029126;28;20204;-60
2021/12/19 00:31:34;;;;;;;7.63;3.67;;;0.10;99.90;;;;;;5011721;28;20213;-60
2021/12/19 00:34:00;;;;;;;7.50;3.70;;;0.10;99.90;;;;;;5011733;28;20501;-60
2021/12/19 00:36:26;;;;;;;9.40;3.93;;;0.10;99.90;;;;;;5011294;28;20208;-60
2021/12/19 00:38:52;;;;;;;8.03;4.10;;;0.20;99.90;;;;;;5013340;28;20190;-60
2021/12/19 00:41:18;;;;;;;6.73;3.27;;;0.30;99.90;;;;;;5015287;28;20177;-60
2021/12/19 00:46:12;;;;;;;6.13;3.17;;;0.30;99.90;;;;;;5019541;28;20181;-60
2021/12/19 00:48:51;;;;;;;9.50;3.73;;;0.20;99.90;;;;;;5017068;28;20568;-60
2021/12/19 00:51:22;;;;;;;6.83;3.47;;;0.20;99.90;;;;;;5034637;28;20215;-57
2021/12/19 00:53:48;;;;;;;6.13;3.10;;;0.20;99.90;;;;;;5034580;28;20191;-60
2021/12/19 00:56:15;;;;;;;8.83;3.77;;;0.10;99.90;;;;;;5034856;28;20189;-61
2021/12/19 00:58:41;;;;;;;9.00;3.77;;;0.20;99.90;;;;;;5034399;28;20220;-60
2021/12/19 01:01:08;;;;;;;7.17;3.67;;;0.20;99.90;;;;;;5017165;28;20315;-60
2021/12/19 01:03:35;;;;;;;6.60;3.83;;;0.20;99.90;;;;;;5016910;28;20195;-61
2021/12/19 01:06:01;;;;;;;8.00;3.70;;;0.20;99.90;;;;;;5033972;28;20192;-57
2021/12/19 01:08:27;;;;;;;7.20;3.20;;;0.20;99.90;;;;;;5034637;28;20205;-55
2021/12/19 01:10:53;;;;;;;6.40;3.30;;;0.20;99.90;;;;;;5033940;28;20239;-54
2021/12/19 01:13:19;;;;;;;8.37;3.57;;;0.20;99.90;;;;;;5033902;28;20223;-56
2021/12/19 01:15:47;;;;;;;8.57;3.33;;;0.30;99.90;;;;;;5018647;28;20204;-58
2021/12/19 01:18:13;;;;;;;7.33;3.77;;;0.30;99.90;;;;;;5034458;28;20207;-56
2021/12/19 01:20:41;;;;;;;9.30;3.63;;;0.30;99.90;;;;;;4999724;28;20328;-56
2021/12/19 01:23:07;;;;;;;10.43;4.20;;;0.20;99.90;;;;;;5034148;28;20179;-56
2021/12/19 01:25:33;;;;;;;9.77;4.00;;;0.20;99.90;;;;;;5034308;28;20185;-56
2021/12/19 01:27:59;;;;;;;7.83;3.70;;;0.20;99.90;;;;;;5016088;28;20173;-53
2021/12/19 01:30:25;;;;;;;9.87;3.80;;;0.20;99.90;;;;;;5021113;28;20295;-56
2021/12/19 01:32:51;;;;;;;9.57;4.30;;;0.20;99.90;;;;;;4995926;28;20181;-56
2021/12/19 01:35:19;;;;;;;6.87;3.97;;;0.20;99.90;;;;;;5013790;28;20218;-56
2021/12/19 01:37:46;;;;;;;10.00;4.27;;;0.20;99.90;;;;;;5013507;28;20181;-57
2021/12/19 01:40:14;;;;;;;9.03;3.57;;;0.10;99.90;;;;;;5013931;28;20194;-53
2021/12/19 01:42:42;;;;;;;7.90;4.33;;;0.20;99.90;;;;;;5018065;28;20271;-60
2021/12/19 01:45:11;;;;;;;11.20;4.73;;;0.10;99.90;;;;;;5033232;28;20534;-56
2021/12/19 01:47:37;;;;;;;7.87;3.90;;;0.10;99.90;;;;;;5033840;28;20222;-53
2021/12/19 01:50:05;;;;;;;9.83;4.17;;;0.10;99.90;;;;;;5014463;28;20252;-54
2021/12/19 01:52:31;;;;;;;7.53;4.30;;;0.10;99.90;;;;;;5033331;28;20632;-57
2021/12/19 01:54:57;;;;;;;10.37;4.37;;;0.10;99.90;;;;;;5033194;28;20267;-55
2021/12/19 01:57:25;;;;;;;13.90;5.60;;;0.20;99.90;;;;;;5033352;28;20710;-55
2021/12/19 01:59:51;;;;;;;10.10;4.57;;;0.20;99.90;;;;;;5033030;28;20184;-55
2021/12/19 02:02:17;;;;;;;8.93;4.13;;;0.10;99.90;;;;;;5033236;28;20275;-55
2021/12/19 02:04:43;;;;;;;11.87;4.17;;;0.20;99.90;;;;;;5015376;28;20192;-57
2021/12/19 02:07:13;;;;;;;8.83;4.33;;;0.20;99.90;;;;;;5033224;28;20184;-54
2021/12/19 02:09:40;;;;;;;7.93;3.70;;;0.20;99.90;;;;;;5033155;28;20334;-54
2021/12/19 02:12:06;;;;;;;8.87;4.20;;;0.20;99.90;;;;;;5033213;28;20203;-56
2021/12/19 02:14:32;;;;;;;7.60;3.80;;;0.20;99.90;;;;;;5027422;28;20224;-55
2021/12/19 02:16:58;;;;;;;6.60;3.43;;;0.20;99.90;;;;;;5023412;28;20667;-55
2021/12/19 02:19:25;;;;;;;9.67;4.57;;;0.20;99.90;;;;;;5033247;28;20239;-56
2021/12/19 02:21:51;;;;;;;8.73;3.83;;;0.20;99.90;;;;;;5032468;28;20185;-55
2021/12/19 02:24:18;;;;;;;9.93;4.60;;;0.20;99.90;;;;;;5033269;28;20287;-55
2021/12/19 02:26:44;;;;;;;9.33;4.20;;;0.20;99.90;;;;;;5032735;28;20335;-56
2021/12/19 02:29:11;;;;;;;11.60;5.10;;;0.10;99.90;;;;;;5030405;28;20189;-54
2021/12/19 02:31:38;;;;;;;9.30;4.60;;;0.10;99.90;;;;;;5012980;28;20292;-56
2021/12/19 02:34:18;;;;;;;7.90;4.33;;;0.10;99.90;;;;;;5012834;28;20186;-56
2021/12/19 02:36:59;;;;;;;9.47;4.30;;;0.20;99.90;;;;;;5012926;28;20522;-57
2021/12/19 02:50:03;;;;;;;10.03;4.57;;;0.20;99.90;;;;;;5032015;28;20219;-54
2021/12/19 02:52:29;;;;;;;13.87;4.57;;;0.30;99.90;;;;;;5032286;28;20279;-56
2021/12/19 02:54:55;;;;;;;11.57;4.83;;;0.30;99.90;;;;;;5014593;28;20272;-53
2021/12/19 02:57:21;;;;;;;8.80;4.37;;;0.30;99.90;;;;;;5014753;28;20183;-56
2021/12/19 02:59:46;;;;;;;11.17;4.57;;;0.30;99.90;;;;;;5032245;28;20192;-55
2021/12/19 03:02:12;;;;;;;7.43;3.93;;;0.30;99.90;;;;;;5031931;28;20203;-54
2021/12/19 03:04:50;;;;;;;16.80;4.60;;;0.40;99.90;;;;;;5032153;28;20197;-53
2021/12/19 03:07:18;;;;;;;10.97;4.30;;;0.40;99.90;;;;;;5032443;28;20171;-53
2021/12/19 03:17:59;;;;;;;8.93;4.13;;;0.50;99.90;;;;;;5030057;28;20216;-56
2021/12/19 03:20:27;;;;;;;8.27;3.27;;;0.50;99.90;;;;;;5032230;28;20220;-55
2021/12/19 03:22:53;;;;;;;12.77;4.67;;;0.50;99.90;;;;;;5031691;28;20196;-57
2021/12/19 03:25:18;;;;;;;15.10;3.60;;;0.50;99.90;;;;;;5032275;28;20540;-56
2021/12/19 03:27:45;;;;;;;8.43;3.60;;;0.50;99.90;;;;;;5031751;28;20193;-63
2021/12/19 03:30:11;;;;;;;6.57;3.30;;;0.50;99.90;;;;;;5020653;28;20212;-56
2021/12/19 03:32:38;;;;;;;9.57;4.33;;;0.50;99.90;;;;;;5011941;28;20611;-53
2021/12/19 03:35:05;;;;;;;16.23;4.23;;;0.60;99.90;;;;;;4993996;28;20273;-55
2021/12/19 03:37:31;;;;;;;14.37;3.50;;;0.50;99.90;;;;;;5012060;28;20183;-55
2021/12/19 03:40:08;;;;;;;9.47;3.83;;;0.60;99.90;;;;;;5011799;28;20198;-55
2021/12/19 03:42:37;;;;;;;12.97;3.60;;;0.60;99.90;;;;;;5012032;28;20615;-56
2021/12/19 03:45:05;;;;;;;9.43;3.63;;;0.60;99.90;;;;;;5012215;28;20596;-57
2021/12/19 03:47:30;;;;;;;6.27;3.00;;;0.60;99.90;;;;;;5026739;28;20325;-59
2021/12/19 03:49:56;;;;;;;8.63;3.30;;;0.60;99.90;;;;;;5030984;28;20327;-57
2021/12/19 03:52:22;;;;;;;9.40;4.10;;;0.60;99.90;;;;;;5013642;28;20594;-56
2021/12/19 03:54:47;;;;;;;11.23;3.57;;;0.60;99.90;;;;;;5031359;28;20319;-54
2021/12/19 03:57:13;;;;;;;6.23;3.43;;;0.60;99.90;;;;;;5031290;28;20631;-52
2021/12/19 03:59:41;;;;;;;9.47;2.83;;;0.60;99.90;;;;;;5031049;28;20193;-54
2021/12/19 04:02:07;;;;;;;6.27;3.20;;;0.60;99.90;;;;;;5030568;28;20205;-54
2021/12/19 04:04:37;;;;;;;17.43;3.17;;;0.60;99.90;;;;;;5030923;28;20180;-56
2021/12/19 04:07:04;;;;;;;17.53;4.70;;;0.60;99.90;;;;;;5014093;28;20273;-54
2021/12/19 04:09:29;;;;;;;9.43;3.80;;;0.70;99.90;;;;;;5031140;28;20185;-55
2021/12/19 04:11:56;;;;;;;13.27;3.90;;;0.60;99.90;;;;;;5031043;28;20188;-55
2021/12/19 04:14:22;;;;;;;6.67;3.43;;;0.70;99.90;;;;;;5030038;28;20242;-56
2021/12/19 04:16:48;;;;;;;13.17;3.80;;;0.70;99.90;;;;;;5024598;28;20213;-55
2021/12/19 04:19:14;;;;;;;6.90;3.13;;;0.70;99.90;;;;;;5034781;28;20220;-55
2021/12/19 04:21:40;;;;;;;8.87;3.10;;;0.70;99.90;;;;;;5017425;28;20192;-56
2021/12/19 04:24:06;;;;;;;10.77;3.30;;;0.70;99.90;;;;;;5016725;28;20187;-55
2021/12/19 04:26:32;;;;;;;9.13;3.30;;;0.70;99.90;;;;;;5035400;28;20203;-59
2021/12/19 04:28:58;;;;;;;10.23;2.77;;;0.70;99.90;;;;;;5033876;28;20174;-53
2021/12/19 04:31:24;;;;;;;7.13;3.43;;;0.70;99.90;;;;;;4997691;28;20692;-56
2021/12/19 04:33:49;;;;;;;7.27;3.33;;;0.70;99.90;;;;;;5014032;28;20222;-62
2021/12/19 04:36:23;;;;;;;6.40;3.00;;;0.70;99.90;;;;;;5015409;28;20179;-55
2021/12/19 04:54:53;;;;;;;19.63;5.07;;;0.90;99.90;;;;;;5034847;28;20181;-54
2021/12/19 04:57:33;;;;;;;21.20;4.53;;;0.90;99.90;;;;;;5034176;28;20192;-57
2021/12/19 05:15:45;;;;;;;16.63;4.50;;;1.00;99.90;;;;;;5018961;28;20176;-58
2021/12/19 05:18:11;;;;;;;17.67;3.80;;;1.10;99.90;;;;;;5033955;28;20191;-55
2021/12/19 05:20:39;;;;;;;9.93;3.10;;;1.10;99.90;;;;;;5033978;28;20193;-55
2021/12/19 05:23:17;;;;;;;9.47;3.33;;;1.10;99.90;;;;;;5033736;28;20200;-55
2021/12/19 05:25:43;;;;;;;7.60;2.87;;;1.20;99.90;;;;;;5032849;28;20181;-54
2021/12/19 05:28:08;;;;;;;5.47;2.27;;;1.20;99.90;;;;;;4999604;28;20318;-53
2021/12/19 05:30:34;;;;;;;6.03;2.60;;;1.20;99.90;;;;;;5019836;28;20228;-58
2021/12/19 05:33:02;;;;;;;6.93;3.33;;;1.20;99.90;;;;;;5013718;28;20179;-55
2021/12/19 05:44:09;;;;;;;9.47;3.50;;;1.20;99.90;;;;;;5013549;28;20197;-56
2021/12/19 05:46:56;;;;;;;7.43;3.30;;;1.30;99.90;;;;;;4940803;28;20237;-58
2021/12/19 05:49:23;;;;;;;9.93;3.93;;;1.30;99.90;;;;;;5001679;28;20252;-56
2021/12/19 05:51:48;;;;;;;13.70;4.33;;;1.30;99.90;;;;;;5032972;28;20281;-54
2021/12/19 05:54:14;;;;;;;27.97;5.33;;;1.30;99.90;;;;;;5033730;28;20191;-53
2021/12/19 05:56:41;;;;;;;9.53;3.40;;;1.30;99.90;;;;;;5033697;28;20217;-59
2021/12/19 05:59:08;;;;;;;11.20;3.17;;;1.40;99.90;;;;;;5033277;28;20229;-53
2021/12/19 06:01:35;;;;;;;13.60;3.50;;;1.40;99.90;;;;;;5033423;28;20189;-52
2021/12/19 06:04:01;;;;;;;9.70;3.70;;;1.50;99.90;;;;;;5014667;28;20202;-56
2021/12/19 06:06:27;;;;;;;12.00;3.57;;;1.50;99.90;;;;;;5033619;28;20231;-55
2021/12/19 06:08:54;;;;;;;13.73;5.27;;;1.50;99.90;;;;;;5033006;28;20272;-56
2021/12/19 06:11:19;;;;;;;11.27;4.47;;;1.60;99.90;;;;;;5015341;28;20313;-57
2021/12/19 06:13:45;;;;;;;17.90;5.23;;;1.60;99.90;;;;;;5032724;28;20730;-65
2021/12/19 06:16:11;;;;;;;14.73;4.80;;;1.60;99.90;;;;;;5017499;28;20619;-57
2021/12/19 06:18:37;;;;;;;10.20;4.20;;;1.70;99.90;;;;;;5032887;28;20269;-57
2021/12/19 06:21:04;;;;;;;13.20;3.97;;;1.70;99.90;;;;;;5014740;28;20206;-57
2021/12/19 06:23:30;;;;;;;11.00;4.60;;;1.80;99.90;;;;;;5032698;28;20250;-56
2021/12/19 06:25:56;;;;;;;14.67;4.33;;;1.80;99.90;;;;;;5032406;28;20269;-55
2021/12/19 06:28:22;;;;;;;14.23;3.93;;;1.90;99.90;;;;;;5033188;28;20267;-58
2021/12/19 06:30:48;;;;;;;18.20;6.60;;;2.00;99.90;;;;;;5016138;28;20215;-58
2021/12/19 06:33:14;;;;;;;13.70;4.23;;;2.00;99.90;;;;;;5012490;28;20236;-55
2021/12/19 06:35:41;;;;;;;11.77;3.57;;;2.10;99.90;;;;;;4994354;28;20223;-57
2021/12/19 06:38:07;;;;;;;15.10;4.00;;;2.10;99.90;;;;;;5012229;28;20702;-62
2021/12/19 06:40:34;;;;;;;18.20;4.80;;;2.20;99.90;;;;;;5012867;28;20595;-56
2021/12/19 06:43:00;;;;;;;8.63;3.90;;;2.30;99.90;;;;;;5012213;28;20238;-60
2021/12/19 06:45:26;;;;;;;10.23;2.90;;;2.30;99.90;;;;;;4995185;28;20274;-60
2021/12/19 06:47:52;;;;;;;6.03;2.87;;;2.30;99.90;;;;;;5030044;28;20273;-66
2021/12/19 06:50:18;;;;;;;9.53;3.27;;;2.40;99.90;;;;;;5031852;28;20206;-61
2021/12/19 06:52:46;;;;;;;11.73;3.17;;;2.40;99.90;;;;;;5032115;28;20195;-59
2021/12/19 06:55:13;;;;;;;7.37;2.90;;;2.40;99.90;;;;;;5031990;28;20174;-59
2021/12/19 06:57:39;;;;;;;9.53;2.90;;;2.50;99.90;;;;;;5014947;28;20179;-60
2021/12/19 07:00:11;;;;;;;9.93;3.40;;;2.50;99.90;;;;;;5031990;28;20786;-60
2021/12/19 07:02:37;;;;;;;11.10;4.30;;;2.50;99.90;;;;;;5032185;28;20166;-59
2021/12/19 07:05:03;;;;;;;6.90;4.23;;;2.50;99.90;;;;;;5031461;28;20546;-59
2021/12/19 07:07:30;;;;;;;10.23;3.00;;;2.50;99.90;;;;;;5031855;28;20185;-59
2021/12/19 07:09:56;;;;;;;6.87;3.03;;;2.50;99.90;;;;;;5031428;28;20704;-59
2021/12/19 07:12:26;;;;;;;10.63;3.57;;;2.50;99.90;;;;;;5032492;28;20174;-58
2021/12/19 07:14:53;;;;;;;6.73;3.23;;;2.50;99.90;;;;;;5023036;28;20239;-60
2021/12/19 07:17:19;;;;;;;5.93;3.10;;;2.60;99.90;;;;;;5025088;28;20190;-59
2021/12/19 07:19:44;;;;;;;6.83;3.60;;;2.60;99.90;;;;;;5031776;28;20197;-59
2021/12/19 07:22:10;;;;;;;6.40;3.13;;;2.70;99.90;;;;;;5031363;28;20183;-60
2021/12/19 07:24:36;;;;;;;9.15;4.50;;;2.70;99.90;;;;;;5013386;28;20438;-59
2021/12/19 07:27:02;;;;;;;9.00;3.80;;;2.70;99.90;;;;;;5031197;28;20221;-60
2021/12/19 07:29:27;;;;;;;6.73;3.50;;;2.80;99.90;;;;;;5029273;28;20210;-61
2021/12/19 07:31:53;;;;;;;4.70;3.17;;;2.80;99.90;;;;;;5030946;28;20230;-61
2021/12/19 07:34:19;;;;;;;7.83;3.27;;;2.90;99.90;;;;;;5031426;28;20185;-64
2021/12/19 07:36:51;;;;;;;7.63;3.00;;;3.00;99.90;;;;;;5031303;28;20188;-62
2021/12/19 07:42:07;;;;;;;7.37;3.30;;;3.20;99.90;;;;;;5031162;28;20274;-65
2021/12/19 07:44:34;;;;;;;7.53;2.93;;;3.30;99.90;;;;;;5031401;28;20185;-61
2021/12/19 07:47:00;;;;;;;5.73;2.90;;;3.30;99.90;;;;;;5012719;28;20183;-63
2021/12/19 07:49:26;;;;;;;9.53;3.07;;;3.40;99.90;;;;;;5012533;28;20191;-65
2021/12/19 07:51:52;;;;;;;9.00;3.50;;;3.40;99.90;;;;;;5030259;28;20644;-64
2021/12/19 07:54:18;;;;;;;5.07;3.03;;;3.50;99.90;;;;;;5030758;28;20183;-62
2021/12/19 07:56:44;;;;;;;8.97;4.47;;;3.60;99.90;;;;;;5014068;28;20187;-65
2021/12/19 07:59:10;;;;;;;12.53;4.80;;;3.70;99.90;;;;;;5030936;28;20184;-62
2021/12/19 08:01:35;;;;;;;10.13;3.37;;;3.70;99.90;;;;;;5013140;28;20204;-57
2021/12/19 08:04:01;;;;;;;18.07;3.90;;;3.70;99.90;;;;;;5016806;28;20197;-63
2021/12/19 08:06:27;;;;;;;6.47;2.93;;;3.70;99.90;;;;;;5011839;28;20302;-62
2021/12/19 08:08:55;;;;;;;6.13;2.87;;;3.60;99.90;;;;;;4993358;28;20188;-63
2021/12/19 08:14:07;;;;;;;5.20;2.47;;;3.70;99.90;;;;;;5012865;28;20244;-64
2021/12/19 08:16:33;;;;;;;5.03;2.47;;;3.80;99.90;;;;;;5023560;28;20188;-65
2021/12/19 08:18:59;;;;;;;6.93;2.80;;;4.10;99.90;;;;;;5011097;28;20181;-65
2021/12/19 08:21:24;;;;;;;4.13;2.10;;;4.80;99.90;;;;;;5012290;28;20532;-63
2021/12/19 08:23:50;;;;;;;4.07;2.33;;;5.30;99.90;;;;;;4993123;28;20616;-64
2021/12/19 08:26:16;;;;;;;6.10;2.17;;;5.40;99.90;;;;;;5010831;28;20195;-62
2021/12/19 08:28:43;;;;;;;11.27;2.93;;;5.60;99.90;;;;;;5011163;28;20180;-62
2021/12/19 08:31:09;;;;;;;4.43;2.40;;;5.80;99.90;;;;;;5029212;28;20238;-60
2021/12/19 08:33:35;;;;;;;7.60;2.53;;;5.90;99.90;;;;;;5030475;28;20635;-57
2021/12/19 08:36:01;;;;;;;8.30;2.73;;;6.10;99.90;;;;;;5030582;28;20178;-61
2021/12/19 08:38:28;;;;;;;7.05;3.17;;;6.50;99.90;;;;;;5030190;28;20476;-61
2021/12/19 08:40:55;;;;;;;6.17;2.90;;;6.90;99.90;;;;;;5020482;28;20385;-61
2021/12/19 08:43:21;;;;;;;4.93;2.87;;;6.90;99.90;;;;;;5005021;28;20188;-62
2021/12/19 08:45:47;;;;;;;5.93;2.47;;;6.90;99.90;;;;;;5028741;28;20199;-61
2021/12/19 08:48:13;;;;;;;4.07;2.07;;;6.80;99.90;;;;;;5022425;28;20289;-59
2021/12/19 08:50:40;;;;;;;6.27;2.57;;;6.60;99.90;;;;;;5022752;28;20615;-60
2021/12/19 08:53:06;;;;;;;5.03;2.73;;;6.40;99.90;;;;;;5029760;28;20242;-60
2021/12/19 08:55:32;;;;;;;3.80;2.27;;;6.30;99.90;;;;;;5030331;28;20195;-60
2021/12/19 08:57:58;;;;;;;4.83;2.27;;;6.20;99.90;;;;;;5030000;28;20271;-60
2021/12/19 09:00:24;;;;;;;6.13;2.63;;;6.20;99.90;;;;;;5033103;28;20182;-60
2021/12/19 09:02:53;;;;;;;5.83;2.60;;;6.20;99.90;;;;;;5033370;28;20179;-60
2021/12/19 09:05:20;;;;;;;4.67;2.03;;;6.20;99.90;;;;;;5033771;28;20631;-59
2021/12/19 09:07:46;;;;;;;4.20;2.53;;;6.10;99.90;;;;;;5033966;28;20175;-60
2021/12/19 09:10:12;;;;;;;5.97;3.13;;;6.10;99.90;;;;;;5033024;28;20207;-60
2021/12/19 09:12:38;;;;;;;4.80;2.10;;;6.10;99.90;;;;;;5016317;28;20183;-60
2021/12/19 09:15:05;;;;;;;4.07;2.57;;;6.20;99.90;;;;;;5023340;28;20238;-71
2021/12/19 09:17:31;;;;;;;6.13;2.60;;;6.40;99.90;;;;;;5011029;28;20550;-62
2021/12/19 09:19:57;;;;;;;6.30;2.83;;;6.60;99.90;;;;;;4999285;28;20184;-64
2021/12/19 09:22:23;;;;;;;6.03;2.77;;;6.90;99.90;;;;;;5033086;28;20743;-62
2021/12/19 09:24:49;;;;;;;7.53;2.87;;;7.20;99.90;;;;;;5032638;28;20590;-63
2021/12/19 09:27:16;;;;;;;5.30;2.43;;;7.40;99.90;;;;;;5004712;28;20244;-65
2021/12/19 09:29:42;;;;;;;5.93;2.20;;;7.40;99.90;;;;;;5003481;28;20192;-61
2021/12/19 09:32:08;;;;;;;5.77;2.47;;;7.20;99.90;;;;;;5033147;28;20345;-61
2021/12/19 09:34:34;;;;;;;3.40;2.17;;;7.00;99.90;;;;;;5015366;28;20262;-60
2021/12/19 09:37:00;;;;;;;3.70;2.20;;;7.00;99.90;;;;;;5033128;28;20180;-62
2021/12/19 09:39:26;;;;;;;5.00;2.33;;;6.90;99.90;;;;;;5032842;28;20268;-60
2021/12/19 09:41:56;;;;;;;7.27;2.50;;;7.00;99.90;;;;;;5032672;28;20182;-61
2021/12/19 09:44:22;;;;;;;7.83;2.67;;;7.20;99.90;;;;;;5033424;28;20538;-62
2021/12/19 09:46:49;;;;;;;5.33;2.90;;;7.30;99.90;;;;;;5023025;28;20205;-72
2021/12/19 09:49:17;;;;;;;4.47;2.20;;;7.40;99.90;;;;;;5013555;28;20187;-63
2021/12/19 09:51:43;;;;;;;4.97;2.57;;;7.30;99.90;;;;;;4994735;28;20212;-63
2021/12/19 09:54:11;;;;;;;6.20;2.80;;;7.30;99.90;;;;;;5012455;28;20207;-64
2021/12/19 09:56:38;;;;;;;5.20;2.07;;;7.40;99.90;;;;;;5012635;28;20177;-61
2021/12/19 09:59:13;;;;;;;3.80;2.30;;;7.30;99.90;;;;;;4979301;28;20188;-60
2021/12/19 10:01:40;;;;;;;5.80;2.80;;;7.30;99.90;;;;;;4994892;28;20243;-60
2021/12/19 10:04:35;;;;;;;4.63;2.03;;;7.30;99.90;;;;;;5012687;28;20189;-61
2021/12/19 10:07:10;;;;;;;3.33;2.13;;;7.30;99.90;;;;;;5012924;28;20601;-60
2021/12/19 10:09:38;;;;;;;4.20;2.80;;;7.20;99.90;;;;;;5012879;28;20271;-61
2021/12/19 10:12:24;;;;;;;5.23;2.57;;;7.10;99.90;;;;;;5011944;28;20578;-60
2021/12/19 10:14:54;;;;;;;4.20;2.07;;;7.20;99.90;;;;;;5002858;28;20232;-60
2021/12/19 10:17:20;;;;;;;5.60;2.43;;;7.10;99.90;;;;;;5000944;28;20552;-62
2021/12/19 10:19:52;;;;;;;3.20;1.90;;;7.10;99.90;;;;;;4995189;28;20200;-61
2021/12/19 10:22:43;;;;;;;3.37;2.00;;;7.00;99.90;;;;;;5012550;28;20189;-60
2021/12/19 10:25:30;;;;;;;4.13;1.87;;;6.90;99.90;;;;;;5012541;28;20371;-60
2021/12/19 10:28:08;;;;;;;6.03;3.00;;;6.90;99.90;;;;;;5012252;28;20272;-60
2021/12/19 10:30:38;;;;;;;8.83;4.73;;;7.00;99.90;;;;;;5008841;28;20276;-60
2021/12/19 10:33:14;;;;;;;11.27;6.13;;;7.30;99.90;;;;;;5031678;28;20375;-59
2021/12/19 10:35:50;;;;;;;13.73;6.50;;;7.50;99.90;;;;;;5014088;28;20185;-61
2021/12/19 10:38:29;;;;;;;13.33;7.30;;;7.60;99.90;;;;;;5031941;28;20168;-59
2021/12/19 10:40:56;;;;;;;15.43;7.23;;;7.60;99.90;;;;;;5013859;28;20192;-62
2021/12/19 10:43:26;;;;;;;10.60;6.60;;;7.60;99.90;;;;;;5031838;28;20179;-60
2021/12/19 10:45:55;;;;;;;11.70;6.47;;;7.60;99.90;;;;;;5029299;28;20194;-62
2021/12/19 10:48:30;;;;;;;14.10;7.60;;;7.50;99.90;;;;;;5011749;28;20328;-64
2021/12/19 10:50:58;;;;;;;9.43;6.27;;;7.40;99.90;;;;;;4994193;28;20212;-63
2021/12/19 10:53:30;;;;;;;12.17;7.23;;;7.00;99.90;;;;;;5012449;28;20243;-61
2021/12/19 10:55:57;;;;;;;12.37;7.07;;;6.70;99.90;;;;;;4993412;28;20552;-64
2021/12/19 10:58:36;;;;;;;18.23;9.03;;;6.50;99.90;;;;;;5017011;28;20614;-60
2021/12/19 11:01:16;;;;;;;15.83;8.87;;;6.40;99.90;;;;;;5031237;28;20695;-64
2021/12/19 11:03:58;;;;;;;15.37;8.47;;;6.30;99.90;;;;;;5025762;28;20194;-64
2021/12/19 11:06:37;;;;;;;19.40;9.03;;;6.20;99.90;;;;;;5031353;28;20646;-60
2021/12/19 11:09:13;;;;;;;19.80;9.67;;;6.10;99.90;;;;;;5031482;28;20631;-61
2021/12/19 11:11:49;;;;;;;12.30;6.80;;;6.10;99.90;;;;;;5031470;28;20301;-60
2021/12/19 11:14:28;;;;;;;10.97;6.40;;;6.10;99.90;;;;;;5027817;28;20223;-60
2021/12/19 11:16:56;;;;;;;11.77;6.30;;;6.00;99.90;;;;;;5011785;28;20175;-60
2021/12/19 11:19:23;;;;;;;8.53;5.80;;;6.00;99.90;;;;;;5011869;28;20196;-61
2021/12/19 11:21:49;;;;;;;10.77;6.17;;;6.00;99.90;;;;;;5011492;28;20196;-60
2021/12/19 11:24:17;;;;;;;10.30;5.97;;;6.00;99.90;;;;;;5010627;28;20199;-61
2021/12/19 11:26:47;;;;;;;10.07;6.00;;;6.20;99.90;;;;;;5010444;28;20180;-68
2021/12/19 11:29:13;;;;;;;13.60;6.70;;;6.40;99.90;;;;;;5013825;28;20243;-62
2021/12/19 11:31:42;;;;;;;12.07;7.13;;;6.50;99.90;;;;;;5030324;28;20272;-59
2021/12/19 11:34:22;;;;;;;15.00;7.90;;;6.70;99.90;;;;;;5030620;28;20198;-62
2021/12/19 11:37:09;;;;;;;12.70;7.17;;;6.90;99.90;;;;;;5030788;28;20632;-65
2021/12/19 11:39:41;;;;;;;10.83;6.10;;;7.00;99.90;;;;;;5023052;28;20172;-63
2021/12/19 11:42:18;;;;;;;12.40;7.20;;;6.80;99.90;;;;;;5029691;28;20811;-63
2021/12/19 11:45:35;;;;;;;11.87;6.03;;;6.60;99.90;;;;;;5029093;28;20542;-64
2021/12/19 11:47:58;;;;;;;14.37;7.97;;;6.60;99.90;;;;;;5014825;28;20195;-66
2021/12/19 11:50:33;;;;;;;15.50;7.20;;;6.50;99.90;;;;;;5029644;28;20203;-64
2021/12/19 11:53:08;;;;;;;13.00;6.47;;;6.40;99.90;;;;;;5028765;28;20199;-62
2021/12/19 11:55:38;;;;;;;11.97;5.97;;;6.50;99.90;;;;;;5027708;28;20183;-63
2021/12/19 11:58:07;;;;;;;6.37;4.10;;;6.50;99.90;;;;;;5007949;28;20260;-67
2021/12/19 12:00:33;;;;;;;10.23;5.43;;;6.40;99.90;;;;;;5027353;28;20227;-64
2021/12/19 12:03:14;;;;;;;10.33;4.90;;;6.40;99.90;;;;;;5013188;28;20226;-66
2021/12/19 12:05:44;;;;;;;9.00;5.43;;;6.50;99.90;;;;;;5011644;28;20173;-67
2021/12/19 12:08:10;;;;;;;7.90;4.93;;;6.40;99.90;;;;;;5010371;28;20181;-63
2021/12/19 12:10:55;;;;;;;9.83;4.60;;;6.30;99.90;;;;;;5011181;28;20657;-64
2021/12/19 12:13:33;;;;;;;8.07;4.30;;;6.10;99.90;;;;;;5026042;28;20691;-68
2021/12/19 12:16:33;;;;;;;7.97;4.33;;;6.10;99.90;;;;;;5029856;28;20194;-73
2021/12/19 12:19:02;;;;;;;5.50;2.97;;;6.00;99.90;;;;;;5024202;28;20227;-66
2021/12/19 12:21:48;;;;;;;9.00;4.03;;;5.90;99.90;;;;;;5012963;28;20202;-64
2021/12/19 12:24:17;;;;;;;6.97;3.93;;;6.00;99.90;;;;;;5012264;28;20234;-65
2021/12/19 12:26:58;;;;;;;6.77;3.53;;;6.00;99.90;;;;;;5030971;28;20377;-62
2021/12/19 12:29:24;;;;;;;8.43;4.33;;;6.10;99.90;;;;;;5028266;28;20194;-63
2021/12/19 12:31:52;;;;;;;11.90;5.00;;;6.10;99.90;;;;;;5030835;28;20215;-66
2021/12/19 12:34:19;;;;;;;9.13;5.03;;;6.10;99.90;;;;;;5014371;28;20607;-62
2021/12/19 12:36:45;;;;;;;12.47;5.70;;;6.00;99.90;;;;;;5034364;28;20726;-64
2021/12/19 12:39:26;;;;;;;13.37;6.07;;;5.80;99.90;;;;;;5034405;28;20175;-61
2021/12/19 12:41:59;;;;;;;14.33;7.37;;;5.70;99.90;;;;;;5034319;28;20233;-65
2021/12/19 12:44:26;;;;;;;13.63;6.00;;;5.70;99.90;;;;;;5000159;28;20286;-58
2021/12/19 12:46:52;;;;;;;14.00;5.73;;;5.70;99.90;;;;;;5034420;28;20650;-69
2021/12/19 12:49:22;;;;;;;11.73;5.10;;;5.60;99.90;;;;;;5033644;28;20198;-72
2021/12/19 12:51:59;;;;;;;7.87;3.50;;;5.70;99.90;;;;;;5033661;28;20558;-68
2021/12/19 12:54:33;;;;;;;6.40;3.33;;;5.70;99.90;;;;;;5033458;28;20212;-62
2021/12/19 12:57:01;;;;;;;9.27;3.50;;;5.70;99.90;;;;;;5032973;28;20193;-63
2021/12/19 12:59:30;;;;;;;8.03;3.47;;;5.80;99.90;;;;;;5025201;28;20188;-58
2021/12/19 13:02:09;;;;;;;11.87;3.50;;;5.80;99.90;;;;;;5009528;28;20796;-58
2021/12/19 13:04:35;;;;;;;11.07;3.70;;;5.90;99.90;;;;;;5029645;28;20590;-58
2021/12/19 13:07:01;;;;;;;13.77;3.17;;;6.00;99.90;;;;;;5011797;28;20222;-66
2021/12/19 13:09:34;;;;;;;15.33;3.27;;;5.90;99.90;;;;;;5030980;28;20651;-64
2021/12/19 13:12:07;;;;;;;15.57;3.57;;;6.00;99.90;;;;;;5025513;28;20223;-66
2021/12/19 13:14:48;;;;;;;16.40;3.33;;;6.00;99.90;;;;;;5027813;28;20314;-76
2021/12/19 13:17:27;;;;;;;6.87;2.57;;;6.00;99.90;;;;;;5028594;28;20191;-64
2021/12/19 13:20:02;;;;;;;6.20;2.53;;;5.90;99.90;;;;;;5015564;28;20214;-65
2021/12/19 13:22:51;;;;;;;11.50;2.70;;;5.90;99.90;;;;;;5021133;28;20240;-61
2021/12/19 13:25:34;;;;;;;11.00;3.33;;;5.90;99.90;;;;;;5021090;28;20183;-61
2021/12/19 13:28:05;;;;;;;14.20;3.90;;;5.90;99.90;;;;;;5018092;28;20206;-62
2021/12/19 13:30:31;;;;;;;8.90;2.93;;;5.80;99.90;;;;;;5031458;28;20289;-62
2021/12/19 13:32:58;;;;;;;22.83;3.20;;;5.70;99.90;;;;;;5019695;28;20183;-63
2021/12/19 13:35:32;;;;;;;8.20;2.33;;;5.70;99.90;;;;;;5032460;28;20485;-65
2021/12/19 13:38:00;;;;;;;5.00;2.63;;;5.70;99.90;;;;;;5030971;28;20186;-61
2021/12/19 13:40:55;;;;;;;9.73;2.53;;;5.60;99.90;;;;;;5033242;28;20201;-66
2021/12/19 13:43:23;;;;;;;4.97;1.90;;;5.60;99.90;;;;;;5022828;28;20274;-64
2021/12/19 13:45:59;;;;;;;9.10;1.70;;;5.70;99.90;;;;;;5029679;28;20591;-61
2021/12/19 13:48:48;;;;;;;5.33;1.57;;;5.70;99.90;;;;;;5030396;28;20539;-65
2021/12/19 13:51:19;;;;;;;4.27;1.20;;;5.70;99.90;;;;;;5028572;28;20222;-63
2021/12/19 13:53:49;;;;;;;2.03;1.00;;;5.70;99.90;;;;;;5032224;28;20187;-63
2021/12/19 13:56:16;;;;;;;4.90;1.40;;;5.70;99.90;;;;;;5029043;28;20930;-62
2021/12/19 13:58:51;;;;;;;2.37;1.23;;;5.70;99.90;;;;;;5016968;28;20192;-66
2021/12/19 14:01:47;;;;;;;5.30;1.50;;;5.60;99.90;;;;;;5010031;28;20294;-59
2021/12/19 14:04:16;;;;;;;14.43;2.70;;;5.60;99.90;;;;;;5015227;28;20191;-60
2021/12/19 14:06:46;;;;;;;5.23;2.20;;;5.50;99.90;;;;;;5027399;28;20591;-60
2021/12/19 14:09:15;;;;;;;4.60;2.20;;;5.40;99.90;;;;;;5028025;28;20191;-61
2021/12/19 14:11:44;;;;;;;6.30;2.57;;;5.30;99.90;;;;;;5021832;28;20211;-57
2021/12/19 14:14:24;;;;;;;6.50;3.27;;;5.10;99.90;;;;;;5014163;28;20230;-59
2021/12/19 14:17:04;;;;;;;8.10;2.97;;;5.10;99.90;;;;;;5030599;28;20177;-60